Bulktec — VRFJ3 — position and weather

sailwx.info

Track history (hours):
 
Tides and Currents Weather Stations Pressure Air Temp Water Temp Dewpoint Dewpoint Depression Visibility Wind Speed Wind Dir Waves Ship Positions

Bulktec

Last reported at 2015-Aug-28 03:33 UTC. Time now 2015-Aug-30 05:55 UTC.
Position N 48°12' W 125°30'.

Length 179 m; draft 6.6 m.

Type: Cargo ship. MMSI: 3699076.

Date/timePositionNaut miles runAvg speedWind from/ knotsBaromVisibWave heightAir tempDewpointWater temp
2015-Aug-28 03:33N 48°12' W 125°30'10 9.6
2015-Aug-28 02:33N 48°17' W 125°18'10 9.7
2015-Aug-28 01:29N 48°25' W 125°07'9 9.3
2015-Aug-28 00:30N 48°31' W 124°56'1010.9
2015-Aug-27 23:33N 48°30' W 124°41'10 9.9
2015-Aug-27 22:33N 48°26' W 124°27'9 8.9
2015-Aug-27 21:33N 48°23' W 124°15'9 8.6
2015-Aug-27 20:33N 48°19' W 124°03'9 8.7
2015-Aug-27 19:31N 48°17' W 123°50'11 9.8
2015-Aug-27 18:26N 48°16' W 123°34'7 7.7
2015-Aug-27 17:33N 48°20' W 123°26'8 8.0
2015-Aug-27 16:33N 48°24' W 123°16'1211.8
2015-Aug-27 15:33N 48°36' W 123°14'1111.4
2015-Aug-27 14:33N 48°45' W 123°05'9 9.1
2015-Aug-27 13:34N 48°54' W 123°09'1212.1
2015-Aug-27 12:34N 49°03' W 123°22'1110.5
2015-Aug-27 11:34N 49°13' W 123°22'10 9.9
2015-Aug-27 10:34N 49°19' W 123°10'4 3.6
2015-Aug-27 09:31N 49°18' W 123°04'0 0.1
2015-Aug-27 08:31N 49°18' W 123°04'0 0.2
2015-Aug-27 07:31N 49°18' W 123°04'0 0.0
2015-Aug-27 06:31N 49°18' W 123°04'0 0.0
2015-Aug-27 05:31N 49°18' W 123°04'0 0.0
2015-Aug-27 04:31N 49°18' W 123°04'0 0.0
2015-Aug-27 03:31N 49°18' W 123°04'0 0.2
2015-Aug-27 02:31N 49°18' W 123°04'0 0.1
2015-Aug-27 01:31N 49°18' W 123°04'0 0.0
2015-Aug-27 00:31N 49°18' W 123°04'0 0.1
2015-Aug-26 23:31N 49°18' W 123°04'0 0.1
2015-Aug-26 22:31N 49°18' W 123°04'0 0.1
2015-Aug-26 21:31N 49°18' W 123°04'0 0.1
2015-Aug-26 20:31N 49°18' W 123°04'0 0.0
2015-Aug-26 19:31N 49°18' W 123°04'0 0.2
2015-Aug-26 18:31N 49°18' W 123°04'0 0.0
2015-Aug-26 17:31N 49°18' W 123°04'0 0.0
2015-Aug-26 16:31N 49°18' W 123°04'0 0.0
2015-Aug-26 15:31N 49°18' W 123°04'0 0.1
2015-Aug-26 14:31N 49°18' W 123°04'0 0.0
2015-Aug-26 13:31N 49°18' W 123°04'0 0.0
2015-Aug-26 12:31N 49°18' W 123°04'0 0.1
2015-Aug-26 11:31N 49°18' W 123°04'0 0.1
2015-Aug-26 10:31N 49°18' W 123°04'1 0.8
2015-Aug-26 09:33N 49°18' W 123°03'1 0.8
2015-Aug-26 08:33N 49°18' W 123°02'0 0.0
2015-Aug-26 07:33N 49°18' W 123°02'0 0.0
2015-Aug-26 06:33N 49°18' W 123°02'0 0.0
2015-Aug-26 05:33N 49°18' W 123°02'0 0.0
2015-Aug-26 04:33N 49°18' W 123°02'0 0.0
2015-Aug-26 03:33N 49°18' W 123°02'0 0.0
2015-Aug-26 02:33N 49°18' W 123°02'0 0.0
2015-Aug-26 01:30N 49°18' W 123°02'0 0.3
2015-Aug-26 00:34N 49°18' W 123°02'1 0.9
2015-Aug-25 23:34N 49°18' W 123°03'0 0.1
2015-Aug-25 22:31N 49°18' W 123°03'0 0.4
2015-Aug-25 21:32N 49°18' W 123°04'0 0.0
2015-Aug-25 20:32N 49°18' W 123°04'0 0.0
2015-Aug-25 19:32N 49°18' W 123°04'0 0.0
2015-Aug-25 18:32N 49°18' W 123°04'0 0.0
2015-Aug-25 17:32N 49°18' W 123°04'0 0.0
2015-Aug-25 16:32N 49°18' W 123°04'0 0.0
2015-Aug-25 15:32N 49°18' W 123°04'0 0.0
2015-Aug-25 14:32N 49°18' W 123°04'0 0.0
2015-Aug-25 13:29N 49°18' W 123°04'0 0.0
2015-Aug-25 12:32N 49°18' W 123°04'0 0.0
2015-Aug-25 11:32N 49°18' W 123°04'0 0.0
2015-Aug-25 10:32N 49°18' W 123°04'0 0.0
2015-Aug-25 09:32N 49°18' W 123°04'0 0.0
2015-Aug-25 08:32N 49°18' W 123°04'0 0.0
2015-Aug-25 07:32N 49°18' W 123°04'0 0.0
2015-Aug-25 06:32N 49°18' W 123°04'0 0.0
2015-Aug-25 05:32N 49°18' W 123°04'0 0.0
2015-Aug-25 04:29N 49°18' W 123°04'0 0.0
2015-Aug-25 03:32N 49°18' W 123°04'0 0.0
2015-Aug-25 02:32N 49°18' W 123°04'0 0.0
2015-Aug-25 01:32N 49°18' W 123°04'0 0.0
2015-Aug-25 00:32N 49°18' W 123°04'0 0.0
2015-Aug-24 23:32N 49°18' W 123°04'4 4.0
2015-Aug-24 22:34N 49°19' W 123°10'2 2.2
2015-Aug-24 21:32N 49°20' W 123°13'0 0.0
2015-Aug-24 20:32N 49°20' W 123°13'0 0.1
2015-Aug-24 19:32N 49°20' W 123°13'0 0.0
2015-Aug-24 18:32N 49°20' W 123°13'0 0.0
2015-Aug-24 17:32N 49°20' W 123°13'0 0.0
2015-Aug-24 16:32N 49°20' W 123°13'0 0.0
2015-Aug-24 15:32N 49°20' W 123°13'0 0.1
2015-Aug-24 14:32N 49°20' W 123°13'0 0.0
2015-Aug-24 13:32N 49°20' W 123°13'0 0.1
2015-Aug-24 12:32N 49°20' W 123°13'0 0.0
2015-Aug-24 11:32N 49°20' W 123°13'0 0.0
2015-Aug-24 10:29N 49°20' W 123°13'0 0.1
2015-Aug-24 09:32N 49°20' W 123°13'0 0.1
2015-Aug-24 08:32N 49°20' W 123°13'0 0.1
2015-Aug-24 07:32N 49°20' W 123°13'0 0.1
2015-Aug-24 06:32N 49°20' W 123°13'0 0.0
2015-Aug-24 05:32N 49°20' W 123°13'0 0.0
2015-Aug-24 04:29N 49°20' W 123°13'0 0.0
2015-Aug-24 03:32N 49°20' W 123°13'0 0.0
2015-Aug-24 02:32N 49°20' W 123°13'0 0.0
2015-Aug-24 01:32N 49°20' W 123°13'0 0.0
2015-Aug-24 00:32N 49°20' W 123°13'0 0.1
2015-Aug-23 23:32N 49°20' W 123°13'0 0.0
2015-Aug-23 22:32N 49°20' W 123°13'0 0.0
2015-Aug-23 21:32N 49°20' W 123°13'0 0.0
2015-Aug-23 20:32N 49°20' W 123°13'0 0.0
2015-Aug-23 19:32N 49°20' W 123°13'0 0.1
2015-Aug-23 18:32N 49°20' W 123°13'0 0.0
2015-Aug-23 17:32N 49°20' W 123°13'0 0.0
2015-Aug-23 16:29N 49°20' W 123°13'0 0.0
2015-Aug-23 15:32N 49°20' W 123°13'0 0.0
2015-Aug-23 14:32N 49°20' W 123°13'0 0.1
2015-Aug-23 13:32N 49°20' W 123°13'0 0.0
2015-Aug-23 12:32N 49°20' W 123°13'0 0.0
2015-Aug-23 11:32N 49°20' W 123°13'0 0.0
2015-Aug-23 10:32N 49°20' W 123°13'0 0.0
2015-Aug-23 09:29N 49°20' W 123°13'0 0.0
2015-Aug-23 08:32N 49°20' W 123°13'0 0.0
2015-Aug-23 07:32N 49°20' W 123°13'0 0.1
2015-Aug-23 06:32N 49°20' W 123°13'0 0.1
2015-Aug-23 05:32N 49°20' W 123°13'0 0.0
2015-Aug-23 04:29N 49°20' W 123°13'0 0.0
2015-Aug-23 03:32N 49°20' W 123°13'0 0.0
2015-Aug-23 02:32N 49°20' W 123°13'0 0.2
2015-Aug-23 01:32N 49°20' W 123°13'0 0.0
2015-Aug-23 00:32N 49°20' W 123°13'0 0.1
2015-Aug-22 23:32N 49°20' W 123°13'0 0.0
2015-Aug-22 22:32N 49°20' W 123°13'0 0.1
2015-Aug-22 21:32N 49°20' W 123°13'0 0.0
2015-Aug-22 20:29N 49°20' W 123°13'0 0.0
2015-Aug-22 19:32N 49°20' W 123°13'0 0.0
2015-Aug-22 18:32N 49°20' W 123°13'0 0.0
2015-Aug-22 17:32N 49°20' W 123°13'0 0.1
2015-Aug-22 16:32N 49°20' W 123°13'0 0.0
2015-Aug-22 15:32N 49°20' W 123°13'0 0.0
2015-Aug-22 14:32N 49°20' W 123°13'0 0.0
2015-Aug-22 13:32N 49°20' W 123°13'0 0.1
2015-Aug-22 12:32N 49°20' W 123°13'0 0.0
2015-Aug-22 11:32N 49°20' W 123°13'0 0.0
2015-Aug-22 10:32N 49°20' W 123°13'0 0.1
2015-Aug-22 09:32N 49°20' W 123°13'0 0.1
2015-Aug-22 08:32N 49°20' W 123°13'0 0.0
2015-Aug-22 07:32N 49°20' W 123°13'0 0.1
2015-Aug-22 06:32N 49°20' W 123°13'0 0.0
2015-Aug-22 05:32N 49°20' W 123°13'0 0.1
2015-Aug-22 04:32N 49°20' W 123°13'0 0.0
2015-Aug-22 03:32N 49°20' W 123°13'0 0.0
2015-Aug-22 02:32N 49°20' W 123°13'0 0.0
2015-Aug-22 01:32N 49°20' W 123°13'0 0.0
2015-Aug-22 00:32N 49°20' W 123°13'0 0.1
2015-Aug-21 23:32N 49°20' W 123°13'0 0.1
2015-Aug-21 22:29N 49°20' W 123°13'0 0.0
2015-Aug-21 21:32N 49°20' W 123°13'0 0.0
2015-Aug-21 20:32N 49°20' W 123°13'0 0.0
2015-Aug-21 19:32N 49°20' W 123°13'0 0.0
2015-Aug-21 18:32N 49°20' W 123°13'0 0.0
2015-Aug-21 17:32N 49°20' W 123°13'0 0.1
2015-Aug-21 16:32N 49°20' W 123°13'0 0.1
2015-Aug-21 15:32N 49°20' W 123°13'0 0.2
2015-Aug-21 14:32N 49°20' W 123°13'0 0.1
2015-Aug-21 13:29N 49°20' W 123°13'0 0.0
2015-Aug-21 12:32N 49°20' W 123°13'0 0.0
2015-Aug-21 11:32N 49°20' W 123°13'0 0.0
2015-Aug-21 10:32N 49°20' W 123°13'0 0.0
2015-Aug-21 09:32N 49°20' W 123°13'0 0.1
2015-Aug-21 08:32N 49°20' W 123°13'0 0.0
2015-Aug-21 07:32N 49°20' W 123°13'0 0.1
2015-Aug-21 06:32N 49°20' W 123°13'0 0.1
2015-Aug-21 05:32N 49°20' W 123°13'0 0.1
2015-Aug-21 04:32N 49°20' W 123°13'0 0.0
2015-Aug-21 03:32N 49°20' W 123°13'0 0.1
2015-Aug-21 02:32N 49°20' W 123°13'0 0.1
2015-Aug-21 01:32N 49°20' W 123°13'0 0.1
2015-Aug-21 00:32N 49°20' W 123°13'0 0.0
2015-Aug-20 23:32N 49°20' W 123°13'0 0.0
2015-Aug-20 22:32N 49°20' W 123°13'0 0.0
2015-Aug-20 21:32N 49°20' W 123°13'0 0.0
2015-Aug-20 20:32N 49°20' W 123°13'0 0.0
2015-Aug-20 19:32N 49°20' W 123°13'0 0.0
2015-Aug-20 18:32N 49°20' W 123°13'0 0.0
2015-Aug-20 17:32N 49°20' W 123°13'0 0.1
2015-Aug-20 16:32N 49°20' W 123°13'0 0.1
2015-Aug-20 15:32N 49°20' W 123°13'0 0.2
2015-Aug-20 14:32N 49°20' W 123°13'0 0.0
2015-Aug-20 13:32N 49°20' W 123°13'0 0.0
2015-Aug-20 12:32N 49°20' W 123°13'0 0.0
2015-Aug-20 11:32N 49°20' W 123°13'0 0.0
2015-Aug-20 10:32N 49°20' W 123°13'0 0.0
2015-Aug-20 09:32N 49°20' W 123°13'0 0.0
2015-Aug-20 08:32N 49°20' W 123°13'0 0.0
2015-Aug-20 07:32N 49°20' W 123°13'0 0.0
2015-Aug-20 06:32N 49°20' W 123°13'0 0.0
2015-Aug-20 05:32N 49°20' W 123°13'0 0.0
2015-Aug-20 04:32N 49°20' W 123°13'0 0.0
2015-Aug-20 03:32N 49°20' W 123°13'0 0.0
2015-Aug-20 02:32N 49°20' W 123°13'0 0.1
2015-Aug-20 01:32N 49°20' W 123°13'0 0.0
2015-Aug-20 00:32N 49°20' W 123°13'0 0.0
2015-Aug-19 23:32N 49°20' W 123°13'0 0.0
2015-Aug-19 22:32N 49°20' W 123°13'0 0.0
2015-Aug-19 21:32N 49°20' W 123°13'0 0.0
2015-Aug-19 20:32N 49°20' W 123°13'0 0.2
2015-Aug-19 19:32N 49°20' W 123°13'0 0.1
2015-Aug-19 18:32N 49°20' W 123°13'0 0.0
2015-Aug-19 17:32N 49°20' W 123°13'0 0.0
2015-Aug-19 16:32N 49°20' W 123°13'0 0.0
2015-Aug-19 15:32N 49°20' W 123°13'0 0.0
2015-Aug-19 14:32N 49°20' W 123°13'0 0.1
2015-Aug-19 13:29N 49°20' W 123°13'0 0.1
2015-Aug-19 12:32N 49°20' W 123°13'0 0.1
2015-Aug-19 11:32N 49°20' W 123°13'0 0.0
2015-Aug-19 10:32N 49°20' W 123°13'0 0.0
2015-Aug-19 09:32N 49°20' W 123°13'0 0.0
2015-Aug-19 08:32N 49°20' W 123°13'0 0.0
2015-Aug-19 07:32N 49°20' W 123°13'0 0.0
2015-Aug-19 06:32N 49°20' W 123°13'0 0.0
2015-Aug-19 05:32N 49°20' W 123°13'0 0.0
2015-Aug-19 04:32N 49°20' W 123°13'0 0.0
2015-Aug-19 03:32N 49°20' W 123°13'0 0.0
2015-Aug-19 02:32N 49°20' W 123°13'0 0.0
2015-Aug-19 01:32N 49°20' W 123°13'0 0.0
2015-Aug-19 00:32N 49°20' W 123°13'0 0.0
2015-Aug-18 23:32N 49°20' W 123°13'0 0.0
2015-Aug-18 22:32N 49°20' W 123°13'0 0.0
2015-Aug-18 21:32N 49°20' W 123°13'0 0.0
2015-Aug-18 20:32N 49°20' W 123°13'0 0.1
2015-Aug-18 19:32N 49°20' W 123°13'0 0.2
2015-Aug-18 18:32N 49°20' W 123°13'0 0.0
2015-Aug-18 17:32N 49°20' W 123°13'0 0.0
2015-Aug-18 16:32N 49°20' W 123°13'0 0.0
2015-Aug-18 15:32N 49°20' W 123°13'0 0.0
2015-Aug-18 14:32N 49°20' W 123°13'0 0.1
2015-Aug-18 13:32N 49°20' W 123°13'0 0.1
2015-Aug-18 12:32N 49°20' W 123°13'0 0.1
2015-Aug-18 11:32N 49°20' W 123°13'0 0.0
2015-Aug-18 10:32N 49°20' W 123°13'0 0.0
2015-Aug-18 09:32N 49°20' W 123°13'0 0.0
2015-Aug-18 08:32N 49°20' W 123°13'0 0.1
2015-Aug-18 07:32N 49°20' W 123°13'3 3.0
2015-Aug-18 06:34N 49°19' W 123°09'4 3.8
2015-Aug-18 05:31N 49°18' W 123°03'0 0.0
2015-Aug-18 04:31N 49°18' W 123°03'0 0.0
2015-Aug-18 04:10N 49°18' W 123°03'0 0.0
2015-Aug-18 04:07N 49°18' W 123°03'  
Track history (hours):
 
Tides and Currents Weather Stations Pressure Air Temp Water Temp Dewpoint Dewpoint Depression Visibility Wind Speed Wind Dir Waves Ship Positions

Bulktec

Last reported at 2015-Aug-28 03:33 UTC. Time now 2015-Aug-30 05:55 UTC.
Position N 48°12' W 125°30'.

Length 179 m; draft 6.6 m.

Type: Cargo ship. MMSI: 3699076.

Date/timePositionNaut miles runAvg speedWind from/ knotsBaromVisibWave heightAir tempDewpointWater temp
2015-Aug-28 03:33N 48°12' W 125°30'10 9.6
2015-Aug-28 02:33N 48°17' W 125°18'10 9.7
2015-Aug-28 01:29N 48°25' W 125°07'9 9.3
2015-Aug-28 00:30N 48°31' W 124°56'1010.9
2015-Aug-27 23:33N 48°30' W 124°41'10 9.9
2015-Aug-27 22:33N 48°26' W 124°27'9 8.9
2015-Aug-27 21:33N 48°23' W 124°15'9 8.6
2015-Aug-27 20:33N 48°19' W 124°03'9 8.7
2015-Aug-27 19:31N 48°17' W 123°50'11 9.8
2015-Aug-27 18:26N 48°16' W 123°34'7 7.7
2015-Aug-27 17:33N 48°20' W 123°26'8 8.0
2015-Aug-27 16:33N 48°24' W 123°16'1211.8
2015-Aug-27 15:33N 48°36' W 123°14'1111.4
2015-Aug-27 14:33N 48°45' W 123°05'9 9.1
2015-Aug-27 13:34N 48°54' W 123°09'1212.1
2015-Aug-27 12:34N 49°03' W 123°22'1110.5
2015-Aug-27 11:34N 49°13' W 123°22'10 9.9
2015-Aug-27 10:34N 49°19' W 123°10'4 3.6
2015-Aug-27 09:31N 49°18' W 123°04'0 0.1
2015-Aug-27 08:31N 49°18' W 123°04'0 0.2
2015-Aug-27 07:31N 49°18' W 123°04'0 0.0
2015-Aug-27 06:31N 49°18' W 123°04'0 0.0
2015-Aug-27 05:31N 49°18' W 123°04'0 0.0
2015-Aug-27 04:31N 49°18' W 123°04'0 0.0
2015-Aug-27 03:31N 49°18' W 123°04'0 0.2
2015-Aug-27 02:31N 49°18' W 123°04'0 0.1
2015-Aug-27 01:31N 49°18' W 123°04'0 0.0
2015-Aug-27 00:31N 49°18' W 123°04'0 0.1
2015-Aug-26 23:31N 49°18' W 123°04'0 0.1
2015-Aug-26 22:31N 49°18' W 123°04'0 0.1
2015-Aug-26 21:31N 49°18' W 123°04'0 0.1
2015-Aug-26 20:31N 49°18' W 123°04'0 0.0
2015-Aug-26 19:31N 49°18' W 123°04'0 0.2
2015-Aug-26 18:31N 49°18' W 123°04'0 0.0
2015-Aug-26 17:31N 49°18' W 123°04'0 0.0
2015-Aug-26 16:31N 49°18' W 123°04'0 0.0
2015-Aug-26 15:31N 49°18' W 123°04'0 0.1
2015-Aug-26 14:31N 49°18' W 123°04'0 0.0
2015-Aug-26 13:31N 49°18' W 123°04'0 0.0
2015-Aug-26 12:31N 49°18' W 123°04'0 0.1
2015-Aug-26 11:31N 49°18' W 123°04'0 0.1
2015-Aug-26 10:31N 49°18' W 123°04'1 0.8
2015-Aug-26 09:33N 49°18' W 123°03'1 0.8
2015-Aug-26 08:33N 49°18' W 123°02'0 0.0
2015-Aug-26 07:33N 49°18' W 123°02'0 0.0
2015-Aug-26 06:33N 49°18' W 123°02'0 0.0
2015-Aug-26 05:33N 49°18' W 123°02'0 0.0
2015-Aug-26 04:33N 49°18' W 123°02'0 0.0
2015-Aug-26 03:33N 49°18' W 123°02'0 0.0
2015-Aug-26 02:33N 49°18' W 123°02'0 0.0
2015-Aug-26 01:30N 49°18' W 123°02'0 0.3
2015-Aug-26 00:34N 49°18' W 123°02'1 0.9
2015-Aug-25 23:34N 49°18' W 123°03'0 0.1
2015-Aug-25 22:31N 49°18' W 123°03'0 0.4
2015-Aug-25 21:32N 49°18' W 123°04'0 0.0
2015-Aug-25 20:32N 49°18' W 123°04'0 0.0
2015-Aug-25 19:32N 49°18' W 123°04'0 0.0
2015-Aug-25 18:32N 49°18' W 123°04'0 0.0
2015-Aug-25 17:32N 49°18' W 123°04'0 0.0
2015-Aug-25 16:32N 49°18' W 123°04'0 0.0
2015-Aug-25 15:32N 49°18' W 123°04'0 0.0
2015-Aug-25 14:32N 49°18' W 123°04'0 0.0
2015-Aug-25 13:29N 49°18' W 123°04'0 0.0
2015-Aug-25 12:32N 49°18' W 123°04'0 0.0
2015-Aug-25 11:32N 49°18' W 123°04'0 0.0
2015-Aug-25 10:32N 49°18' W 123°04'0 0.0
2015-Aug-25 09:32N 49°18' W 123°04'0 0.0
2015-Aug-25 08:32N 49°18' W 123°04'0 0.0
2015-Aug-25 07:32N 49°18' W 123°04'0 0.0
2015-Aug-25 06:32N 49°18' W 123°04'0 0.0
2015-Aug-25 05:32N 49°18' W 123°04'0 0.0
2015-Aug-25 04:29N 49°18' W 123°04'0 0.0
2015-Aug-25 03:32N 49°18' W 123°04'0 0.0
2015-Aug-25 02:32N 49°18' W 123°04'0 0.0
2015-Aug-25 01:32N 49°18' W 123°04'0 0.0
2015-Aug-25 00:32N 49°18' W 123°04'0 0.0
2015-Aug-24 23:32N 49°18' W 123°04'4 4.0
2015-Aug-24 22:34N 49°19' W 123°10'2 2.2
2015-Aug-24 21:32N 49°20' W 123°13'0 0.0
2015-Aug-24 20:32N 49°20' W 123°13'0 0.1
2015-Aug-24 19:32N 49°20' W 123°13'0 0.0
2015-Aug-24 18:32N 49°20' W 123°13'0 0.0
2015-Aug-24 17:32N 49°20' W 123°13'0 0.0
2015-Aug-24 16:32N 49°20' W 123°13'0 0.0
2015-Aug-24 15:32N 49°20' W 123°13'0 0.1
2015-Aug-24 14:32N 49°20' W 123°13'0 0.0
2015-Aug-24 13:32N 49°20' W 123°13'0 0.1
2015-Aug-24 12:32N 49°20' W 123°13'0 0.0
2015-Aug-24 11:32N 49°20' W 123°13'0 0.0
2015-Aug-24 10:29N 49°20' W 123°13'0 0.1
2015-Aug-24 09:32N 49°20' W 123°13'0 0.1
2015-Aug-24 08:32N 49°20' W 123°13'0 0.1
2015-Aug-24 07:32N 49°20' W 123°13'0 0.1
2015-Aug-24 06:32N 49°20' W 123°13'0 0.0
2015-Aug-24 05:32N 49°20' W 123°13'0 0.0
2015-Aug-24 04:29N 49°20' W 123°13'0 0.0
2015-Aug-24 03:32N 49°20' W 123°13'0 0.0
2015-Aug-24 02:32N 49°20' W 123°13'0 0.0
2015-Aug-24 01:32N 49°20' W 123°13'0 0.0
2015-Aug-24 00:32N 49°20' W 123°13'0 0.1
2015-Aug-23 23:32N 49°20' W 123°13'0 0.0
2015-Aug-23 22:32N 49°20' W 123°13'0 0.0
2015-Aug-23 21:32N 49°20' W 123°13'0 0.0
2015-Aug-23 20:32N 49°20' W 123°13'0 0.0
2015-Aug-23 19:32N 49°20' W 123°13'0 0.1
2015-Aug-23 18:32N 49°20' W 123°13'0 0.0
2015-Aug-23 17:32N 49°20' W 123°13'0 0.0
2015-Aug-23 16:29N 49°20' W 123°13'0 0.0
2015-Aug-23 15:32N 49°20' W 123°13'0 0.0
2015-Aug-23 14:32N 49°20' W 123°13'0 0.1
2015-Aug-23 13:32N 49°20' W 123°13'0 0.0
2015-Aug-23 12:32N 49°20' W 123°13'0 0.0
2015-Aug-23 11:32N 49°20' W 123°13'0 0.0
2015-Aug-23 10:32N 49°20' W 123°13'0 0.0
2015-Aug-23 09:29N 49°20' W 123°13'0 0.0
2015-Aug-23 08:32N 49°20' W 123°13'0 0.0
2015-Aug-23 07:32N 49°20' W 123°13'0 0.1
2015-Aug-23 06:32N 49°20' W 123°13'0 0.1
2015-Aug-23 05:32N 49°20' W 123°13'0 0.0
2015-Aug-23 04:29N 49°20' W 123°13'0 0.0
2015-Aug-23 03:32N 49°20' W 123°13'0 0.0
2015-Aug-23 02:32N 49°20' W 123°13'0 0.2
2015-Aug-23 01:32N 49°20' W 123°13'0 0.0
2015-Aug-23 00:32N 49°20' W 123°13'0 0.1
2015-Aug-22 23:32N 49°20' W 123°13'0 0.0
2015-Aug-22 22:32N 49°20' W 123°13'0 0.1
2015-Aug-22 21:32N 49°20' W 123°13'0 0.0
2015-Aug-22 20:29N 49°20' W 123°13'0 0.0
2015-Aug-22 19:32N 49°20' W 123°13'0 0.0
2015-Aug-22 18:32N 49°20' W 123°13'0 0.0
2015-Aug-22 17:32N 49°20' W 123°13'0 0.1
2015-Aug-22 16:32N 49°20' W 123°13'0 0.0
2015-Aug-22 15:32N 49°20' W 123°13'0 0.0
2015-Aug-22 14:32N 49°20' W 123°13'0 0.0
2015-Aug-22 13:32N 49°20' W 123°13'0 0.1
2015-Aug-22 12:32N 49°20' W 123°13'0 0.0
2015-Aug-22 11:32N 49°20' W 123°13'0 0.0
2015-Aug-22 10:32N 49°20' W 123°13'0 0.1
2015-Aug-22 09:32N 49°20' W 123°13'0 0.1
2015-Aug-22 08:32N 49°20' W 123°13'0 0.0
2015-Aug-22 07:32N 49°20' W 123°13'0 0.1
2015-Aug-22 06:32N 49°20' W 123°13'0 0.0
2015-Aug-22 05:32N 49°20' W 123°13'0 0.1
2015-Aug-22 04:32N 49°20' W 123°13'0 0.0
2015-Aug-22 03:32N 49°20' W 123°13'0 0.0
2015-Aug-22 02:32N 49°20' W 123°13'0 0.0
2015-Aug-22 01:32N 49°20' W 123°13'0 0.0
2015-Aug-22 00:32N 49°20' W 123°13'0 0.1
2015-Aug-21 23:32N 49°20' W 123°13'0 0.1
2015-Aug-21 22:29N 49°20' W 123°13'0 0.0
2015-Aug-21 21:32N 49°20' W 123°13'0 0.0
2015-Aug-21 20:32N 49°20' W 123°13'0 0.0
2015-Aug-21 19:32N 49°20' W 123°13'0 0.0
2015-Aug-21 18:32N 49°20' W 123°13'0 0.0
2015-Aug-21 17:32N 49°20' W 123°13'0 0.1
2015-Aug-21 16:32N 49°20' W 123°13'0 0.1
2015-Aug-21 15:32N 49°20' W 123°13'0 0.2
2015-Aug-21 14:32N 49°20' W 123°13'0 0.1
2015-Aug-21 13:29N 49°20' W 123°13'0 0.0
2015-Aug-21 12:32N 49°20' W 123°13'0 0.0
2015-Aug-21 11:32N 49°20' W 123°13'0 0.0
2015-Aug-21 10:32N 49°20' W 123°13'0 0.0
2015-Aug-21 09:32N 49°20' W 123°13'0 0.1
2015-Aug-21 08:32N 49°20' W 123°13'0 0.0
2015-Aug-21 07:32N 49°20' W 123°13'0 0.1
2015-Aug-21 06:32N 49°20' W 123°13'0 0.1
2015-Aug-21 05:32N 49°20' W 123°13'0 0.1
2015-Aug-21 04:32N 49°20' W 123°13'0 0.0
2015-Aug-21 03:32N 49°20' W 123°13'0 0.1
2015-Aug-21 02:32N 49°20' W 123°13'0 0.1
2015-Aug-21 01:32N 49°20' W 123°13'0 0.1
2015-Aug-21 00:32N 49°20' W 123°13'0 0.0
2015-Aug-20 23:32N 49°20' W 123°13'0 0.0
2015-Aug-20 22:32N 49°20' W 123°13'0 0.0
2015-Aug-20 21:32N 49°20' W 123°13'0 0.0
2015-Aug-20 20:32N 49°20' W 123°13'0 0.0
2015-Aug-20 19:32N 49°20' W 123°13'0 0.0
2015-Aug-20 18:32N 49°20' W 123°13'0 0.0
2015-Aug-20 17:32N 49°20' W 123°13'0 0.1
2015-Aug-20 16:32N 49°20' W 123°13'0 0.1
2015-Aug-20 15:32N 49°20' W 123°13'0 0.2
2015-Aug-20 14:32N 49°20' W 123°13'0 0.0
2015-Aug-20 13:32N 49°20' W 123°13'0 0.0
2015-Aug-20 12:32N 49°20' W 123°13'0 0.0
2015-Aug-20 11:32N 49°20' W 123°13'0 0.0
2015-Aug-20 10:32N 49°20' W 123°13'0 0.0
2015-Aug-20 09:32N 49°20' W 123°13'0 0.0
2015-Aug-20 08:32N 49°20' W 123°13'0 0.0
2015-Aug-20 07:32N 49°20' W 123°13'0 0.0
2015-Aug-20 06:32N 49°20' W 123°13'0 0.0
2015-Aug-20 05:32N 49°20' W 123°13'0 0.0
2015-Aug-20 04:32N 49°20' W 123°13'0 0.0
2015-Aug-20 03:32N 49°20' W 123°13'0 0.0
2015-Aug-20 02:32N 49°20' W 123°13'0 0.1
2015-Aug-20 01:32N 49°20' W 123°13'0 0.0
2015-Aug-20 00:32N 49°20' W 123°13'0 0.0
2015-Aug-19 23:32N 49°20' W 123°13'0 0.0
2015-Aug-19 22:32N 49°20' W 123°13'0 0.0
2015-Aug-19 21:32N 49°20' W 123°13'0 0.0
2015-Aug-19 20:32N 49°20' W 123°13'0 0.2
2015-Aug-19 19:32N 49°20' W 123°13'0 0.1
2015-Aug-19 18:32N 49°20' W 123°13'0 0.0
2015-Aug-19 17:32N 49°20' W 123°13'0 0.0
2015-Aug-19 16:32N 49°20' W 123°13'0 0.0
2015-Aug-19 15:32N 49°20' W 123°13'0 0.0
2015-Aug-19 14:32N 49°20' W 123°13'0 0.1
2015-Aug-19 13:29N 49°20' W 123°13'0 0.1
2015-Aug-19 12:32N 49°20' W 123°13'0 0.1
2015-Aug-19 11:32N 49°20' W 123°13'0 0.0
2015-Aug-19 10:32N 49°20' W 123°13'0 0.0
2015-Aug-19 09:32N 49°20' W 123°13'0 0.0
2015-Aug-19 08:32N 49°20' W 123°13'0 0.0
2015-Aug-19 07:32N 49°20' W 123°13'0 0.0
2015-Aug-19 06:32N 49°20' W 123°13'0 0.0
2015-Aug-19 05:32N 49°20' W 123°13'0 0.0
2015-Aug-19 04:32N 49°20' W 123°13'0 0.0
2015-Aug-19 03:32N 49°20' W 123°13'0 0.0
2015-Aug-19 02:32N 49°20' W 123°13'0 0.0
2015-Aug-19 01:32N 49°20' W 123°13'0 0.0
2015-Aug-19 00:32N 49°20' W 123°13'0 0.0
2015-Aug-18 23:32N 49°20' W 123°13'0 0.0
2015-Aug-18 22:32N 49°20' W 123°13'0 0.0
2015-Aug-18 21:32N 49°20' W 123°13'0 0.0
2015-Aug-18 20:32N 49°20' W 123°13'0 0.1
2015-Aug-18 19:32N 49°20' W 123°13'0 0.2
2015-Aug-18 18:32N 49°20' W 123°13'0 0.0
2015-Aug-18 17:32N 49°20' W 123°13'0 0.0
2015-Aug-18 16:32N 49°20' W 123°13'0 0.0
2015-Aug-18 15:32N 49°20' W 123°13'0 0.0
2015-Aug-18 14:32N 49°20' W 123°13'0 0.1
2015-Aug-18 13:32N 49°20' W 123°13'0 0.1
2015-Aug-18 12:32N 49°20' W 123°13'0 0.1
2015-Aug-18 11:32N 49°20' W 123°13'0 0.0
2015-Aug-18 10:32N 49°20' W 123°13'0 0.0
2015-Aug-18 09:32N 49°20' W 123°13'0 0.0
2015-Aug-18 08:32N 49°20' W 123°13'0 0.1
2015-Aug-18 07:32N 49°20' W 123°13'3 3.0
2015-Aug-18 06:34N 49°19' W 123°09'4 3.8
2015-Aug-18 05:31N 49°18' W 123°03'0 0.0
2015-Aug-18 04:31N 49°18' W 123°03'0 0.0
2015-Aug-18 04:10N 49°18' W 123°03'0 0.0
2015-Aug-18 04:07N 49°18' W 123°03'  

Dump ship's entire track history